createdAt,value
2022-09-03T00:02:08.084Z,14.40
2022-09-03T00:05:14.930Z,14.37
2022-09-03T00:07:47.377Z,14.40
2022-09-03T00:10:22.953Z,14.39
2022-09-03T00:12:54.573Z,14.42
2022-09-03T00:15:24.506Z,14.48
2022-09-03T00:18:00.923Z,14.37
2022-09-03T00:20:34.494Z,14.41
2022-09-03T00:23:07.148Z,14.40
2022-09-03T00:25:50.895Z,14.38
2022-09-03T00:28:35.873Z,14.39
2022-09-03T00:31:30.389Z,14.39
2022-09-03T00:34:04.850Z,14.41
2022-09-03T00:36:44.046Z,14.44
2022-09-03T00:39:24.053Z,14.42
2022-09-03T00:42:21.147Z,14.38
2022-09-03T00:45:13.828Z,14.35
2022-09-03T00:47:57.048Z,14.39
2022-09-03T00:51:00.463Z,14.38
2022-09-03T00:53:40.980Z,14.42
2022-09-03T00:56:21.332Z,14.45
2022-09-03T00:59:01.756Z,14.44
2022-09-03T01:01:33.910Z,14.43
2022-09-03T01:04:21.787Z,14.49
2022-09-03T01:07:04.855Z,14.47
2022-09-03T01:10:13.268Z,14.45
2022-09-03T01:12:59.984Z,14.45
2022-09-03T01:15:45.822Z,14.43
2022-09-03T01:18:13.813Z,14.46
2022-09-03T01:20:59.210Z,14.48
2022-09-03T01:23:30.039Z,14.55
2022-09-03T01:26:11.534Z,14.55
2022-09-03T01:28:40.574Z,14.55
2022-09-03T01:31:36.443Z,14.51
2022-09-03T01:34:32.244Z,14.42
2022-09-03T01:37:33.606Z,14.42
2022-09-03T01:40:23.907Z,14.44
2022-09-03T01:43:05.362Z,14.45
2022-09-03T01:45:51.130Z,14.44
2022-09-03T01:48:38.027Z,14.45
2022-09-03T01:51:28.136Z,14.50
2022-09-03T01:54:24.899Z,14.50
2022-09-03T01:57:46.288Z,14.50
2022-09-03T02:00:22.886Z,14.46
2022-09-03T02:02:55.671Z,14.42
2022-09-03T02:05:26.450Z,14.46
2022-09-03T02:08:04.584Z,14.46
2022-09-03T02:10:40.942Z,14.43
2022-09-03T02:13:24.666Z,14.43
2022-09-03T02:15:56.490Z,14.46
2022-09-03T02:18:29.095Z,14.44
2022-09-03T02:21:00.885Z,14.44
2022-09-03T02:23:30.037Z,14.44
2022-09-03T02:26:02.077Z,14.48
2022-09-03T02:28:32.552Z,14.38
2022-09-03T02:31:00.730Z,14.39
2022-09-03T02:33:30.467Z,14.43
2022-09-03T02:35:58.437Z,14.45
2022-09-03T02:38:27.246Z,14.48
2022-09-03T02:40:55.990Z,14.47
2022-09-03T02:43:41.176Z,14.46
2022-09-03T02:46:16.501Z,14.47
2022-09-03T02:48:44.545Z,14.47
2022-09-03T02:51:14.267Z,14.53
2022-09-03T02:53:43.206Z,14.51
2022-09-03T02:56:11.771Z,14.49
2022-09-03T02:58:39.838Z,14.51
2022-09-03T03:01:07.912Z,14.49
2022-09-03T03:03:35.938Z,14.48
2022-09-03T03:06:06.001Z,14.51
2022-09-03T03:08:35.463Z,14.47
2022-09-03T03:11:03.513Z,14.44
2022-09-03T03:13:32.337Z,14.47
2022-09-03T03:16:08.619Z,14.46
2022-09-03T03:18:36.978Z,14.45
2022-09-03T03:21:10.583Z,14.45
2022-09-03T03:23:39.883Z,14.46
2022-09-03T03:26:11.127Z,14.47
2022-09-03T03:28:39.229Z,14.46
2022-09-03T03:31:09.562Z,14.46
2022-09-03T03:33:38.583Z,14.42
2022-09-03T03:36:08.272Z,14.39
2022-09-03T03:38:37.197Z,14.39
2022-09-03T03:41:19.614Z,14.35
2022-09-03T03:43:48.479Z,14.31
2022-09-03T03:46:16.625Z,14.32
2022-09-03T03:48:48.340Z,14.26
2022-09-03T03:51:16.551Z,14.32
2022-09-03T03:53:45.659Z,14.27
2022-09-03T03:56:17.004Z,14.26
2022-09-03T03:58:45.338Z,14.21
2022-09-03T04:01:16.184Z,14.24
2022-09-03T04:03:44.748Z,14.27
2022-09-03T04:06:15.606Z,14.26
2022-09-03T04:08:45.090Z,14.31
2022-09-03T04:11:20.726Z,14.25
2022-09-03T04:13:49.845Z,14.13
2022-09-03T04:16:28.854Z,14.19
2022-09-03T04:18:57.990Z,14.16
2022-09-03T04:21:28.862Z,14.06
2022-09-03T04:23:58.293Z,14.14
2022-09-03T04:26:32.546Z,14.18
2022-09-03T04:29:04.848Z,14.04
2022-09-03T04:31:34.422Z,14.15
2022-09-03T04:34:03.143Z,14.21
2022-09-03T04:36:32.295Z,14.20
2022-09-03T04:39:01.903Z,14.27
2022-09-03T04:41:31.857Z,14.30
2022-09-03T04:44:00.425Z,14.26
2022-09-03T04:46:33.753Z,14.29
2022-09-03T04:49:05.209Z,14.27
2022-09-03T04:51:33.366Z,14.18
2022-09-03T04:54:02.610Z,14.23
2022-09-03T04:56:35.564Z,14.31
2022-09-03T04:59:09.737Z,14.41
2022-09-03T05:01:39.787Z,14.46
2022-09-03T05:04:08.821Z,14.53
2022-09-03T05:06:37.500Z,14.53
2022-09-03T05:09:06.811Z,14.54
2022-09-03T05:11:34.927Z,14.53
2022-09-03T05:14:05.948Z,14.61
2022-09-03T05:16:34.043Z,14.61
2022-09-03T05:19:06.084Z,14.58
2022-09-03T05:21:37.950Z,14.56
2022-09-03T05:24:06.074Z,14.62
2022-09-03T05:26:38.357Z,14.57
2022-09-03T05:29:07.877Z,14.62
2022-09-03T05:31:39.829Z,14.67
2022-09-03T05:34:10.164Z,14.62
2022-09-03T05:36:44.287Z,14.63
2022-09-03T05:39:12.306Z,14.66
2022-09-03T05:41:40.606Z,14.67
2022-09-03T05:44:08.581Z,14.74
2022-09-03T05:46:38.483Z,14.81
2022-09-03T05:49:07.943Z,14.76
2022-09-03T05:51:37.263Z,14.79
2022-09-03T05:54:05.867Z,14.77
2022-09-03T05:56:35.944Z,14.80
2022-09-03T05:59:09.383Z,14.76
2022-09-03T06:01:52.259Z,14.75
2022-09-03T06:04:22.078Z,14.68
2022-09-03T06:06:50.450Z,14.65
2022-09-03T06:09:23.720Z,14.77
2022-09-03T06:11:54.163Z,14.82
2022-09-03T06:14:22.353Z,14.81
2022-09-03T06:16:52.781Z,14.80
2022-09-03T06:19:21.203Z,14.84
2022-09-03T06:21:49.607Z,14.89
2022-09-03T06:24:27.841Z,14.82
2022-09-03T06:26:57.431Z,14.84
2022-09-03T06:29:25.953Z,14.88
2022-09-03T06:31:55.405Z,14.89
2022-09-03T06:34:27.466Z,14.82
2022-09-03T06:36:55.760Z,14.78
2022-09-03T06:39:24.810Z,14.82
2022-09-03T06:41:53.701Z,14.88
2022-09-03T06:44:27.098Z,14.84
2022-09-03T06:46:55.069Z,14.86
2022-09-03T06:49:26.383Z,14.91
2022-09-03T06:51:54.730Z,14.91
2022-09-03T06:54:23.248Z,15.10
2022-09-03T06:56:51.249Z,15.05
2022-09-03T06:59:19.451Z,14.98
2022-09-03T07:01:47.901Z,15.16
2022-09-03T07:04:19.129Z,15.21
2022-09-03T07:06:47.710Z,15.30
2022-09-03T07:09:18.382Z,15.28
2022-09-03T07:11:48.377Z,15.59
2022-09-03T07:14:19.253Z,15.66
2022-09-03T07:16:49.653Z,15.76
2022-09-03T07:19:18.532Z,15.89
2022-09-03T07:21:51.016Z,15.86
2022-09-03T07:24:22.723Z,15.85
2022-09-03T07:26:51.003Z,16.05
2022-09-03T07:29:22.061Z,16.04
2022-09-03T07:31:52.325Z,15.91
2022-09-03T07:34:25.285Z,16.03
2022-09-03T07:36:54.574Z,16.17
2022-09-03T07:39:24.446Z,16.27
2022-09-03T07:41:52.754Z,16.27
2022-09-03T07:44:22.179Z,16.38
2022-09-03T07:46:51.646Z,16.16
2022-09-03T07:49:22.140Z,16.37
2022-09-03T07:51:54.309Z,16.34
2022-09-03T07:54:26.326Z,16.27
2022-09-03T07:56:55.025Z,16.29
2022-09-03T07:59:24.683Z,16.33
2022-09-03T08:01:53.453Z,16.43
2022-09-03T08:04:25.405Z,16.73
2022-09-03T08:06:55.969Z,16.90
2022-09-03T08:09:24.662Z,16.96
2022-09-03T08:11:52.811Z,17.11
2022-09-03T08:14:20.987Z,16.92
2022-09-03T08:16:49.155Z,17.10
2022-09-03T08:19:21.387Z,17.37
2022-09-03T08:21:49.499Z,17.58
2022-09-03T08:24:21.222Z,17.48
2022-09-03T08:26:52.216Z,17.59
2022-09-03T08:29:21.600Z,17.72
2022-09-03T08:31:49.834Z,17.67
2022-09-03T08:34:18.376Z,17.54
2022-09-03T08:36:47.426Z,17.81
2022-09-03T08:39:16.841Z,17.51
2022-09-03T08:41:51.185Z,17.73
2022-09-03T08:44:37.751Z,17.90
2022-09-03T08:47:18.000Z,18.04
2022-09-03T08:49:58.348Z,18.12
2022-09-03T08:52:39.002Z,18.22
2022-09-03T08:55:26.766Z,18.12
2022-09-03T08:58:03.710Z,18.02
2022-09-03T09:01:02.908Z,17.99
2022-09-03T09:04:00.553Z,17.79
2022-09-03T09:06:47.492Z,17.89
2022-09-03T09:09:34.113Z,17.50
2022-09-03T09:12:41.169Z,17.53
2022-09-03T09:15:19.708Z,17.54
2022-09-03T09:17:47.657Z,17.52
2022-09-03T09:20:32.921Z,17.27
2022-09-03T09:23:08.569Z,17.31
2022-09-03T09:25:49.102Z,17.29
2022-09-03T09:28:25.036Z,17.24
2022-09-03T09:30:58.613Z,17.27
2022-09-03T09:33:26.975Z,17.04
2022-09-03T09:36:00.270Z,16.95
2022-09-03T09:38:32.092Z,16.95
2022-09-03T09:41:15.680Z,16.76
2022-09-03T09:43:44.581Z,16.90
2022-09-03T09:46:16.354Z,16.87
2022-09-03T09:48:52.351Z,16.95
2022-09-03T09:51:23.017Z,17.06
2022-09-03T09:54:04.565Z,17.20
2022-09-03T09:56:33.249Z,17.11
2022-09-03T09:59:10.306Z,17.22
2022-09-03T10:01:41.487Z,17.36
2022-09-03T10:04:14.874Z,17.41
2022-09-03T10:06:59.471Z,17.52
2022-09-03T10:09:32.729Z,17.81
2022-09-03T10:12:14.830Z,17.95
2022-09-03T10:15:21.008Z,17.91
2022-09-03T10:18:08.134Z,18.13
2022-09-03T10:20:44.434Z,18.52
2022-09-03T10:23:30.978Z,18.52
2022-09-03T10:26:07.935Z,18.37
2022-09-03T10:28:43.021Z,18.45
2022-09-03T10:31:22.423Z,19.08
2022-09-03T10:34:03.795Z,19.18
2022-09-03T10:37:00.697Z,19.49
2022-09-03T10:40:11.827Z,19.50
2022-09-03T10:42:55.028Z,19.78
2022-09-03T10:45:29.291Z,20.03
2022-09-03T10:48:24.850Z,20.09
2022-09-03T10:51:09.964Z,20.62
2022-09-03T10:54:03.368Z,21.28
2022-09-03T10:56:57.897Z,21.35
2022-09-03T10:59:36.461Z,21.09
2022-09-03T11:02:41.477Z,21.03
2022-09-03T11:05:27.143Z,20.95
2022-09-03T11:08:07.015Z,21.28
2022-09-03T11:10:44.704Z,21.62
2022-09-03T11:13:16.059Z,21.75
2022-09-03T11:15:55.803Z,22.05
2022-09-03T11:18:48.472Z,22.59
2022-09-03T11:21:22.051Z,22.49
2022-09-03T11:24:07.926Z,22.66
2022-09-03T11:26:38.011Z,22.94
2022-09-03T11:29:26.257Z,22.75
2022-09-03T11:32:16.171Z,23.24
2022-09-03T11:34:49.664Z,23.66
2022-09-03T11:37:26.728Z,23.38
2022-09-03T11:40:05.444Z,23.16
2022-09-03T11:42:41.449Z,21.86
2022-09-03T11:45:24.428Z,21.91
2022-09-03T11:47:54.445Z,21.85
2022-09-03T11:50:24.760Z,21.20
2022-09-03T11:52:57.013Z,21.13
2022-09-03T11:55:37.508Z,21.15
2022-09-03T11:58:27.824Z,21.29
2022-09-03T12:00:57.269Z,21.44
2022-09-03T12:03:30.220Z,21.01
2022-09-03T12:06:03.369Z,21.10
2022-09-03T12:09:01.324Z,21.34
2022-09-03T12:11:37.604Z,20.92
2022-09-03T12:14:33.512Z,20.86
2022-09-03T12:17:31.098Z,20.85
2022-09-03T12:19:59.521Z,21.28
2022-09-03T12:22:31.427Z,22.18
2022-09-03T12:25:12.349Z,22.42
2022-09-03T12:27:45.046Z,22.99
2022-09-03T12:30:21.584Z,23.71
2022-09-03T12:32:51.425Z,23.63
2022-09-03T12:38:18.604Z,23.81
2022-09-03T12:43:39.577Z,25.20
2022-09-03T12:46:16.471Z,25.26
2022-09-03T12:52:06.597Z,26.49
2022-09-03T12:55:01.907Z,25.99
2022-09-03T12:58:02.648Z,25.54
2022-09-03T13:00:36.632Z,25.64
2022-09-03T13:03:19.674Z,25.62
2022-09-03T13:05:57.369Z,25.33
2022-09-03T13:08:32.189Z,25.93
2022-09-03T13:11:06.137Z,26.50
2022-09-03T13:13:39.499Z,27.25
2022-09-03T13:16:31.408Z,26.89
2022-09-03T13:19:24.687Z,26.17
2022-09-03T13:22:11.686Z,25.84
2022-09-03T13:24:45.095Z,26.33
2022-09-03T13:27:31.649Z,26.22
2022-09-03T13:30:35.245Z,25.75
2022-09-03T13:33:33.710Z,25.84
2022-09-03T13:36:16.805Z,25.46
2022-09-03T13:39:06.789Z,25.12
2022-09-03T13:42:02.474Z,25.45
2022-09-03T13:44:38.144Z,25.37
2022-09-03T13:47:13.086Z,24.48
2022-09-03T13:50:22.427Z,24.15
2022-09-03T13:53:00.493Z,23.36
2022-09-03T13:55:47.534Z,23.26
2022-09-03T13:58:36.399Z,22.87
2022-09-03T14:01:14.268Z,22.22
2022-09-03T14:03:56.220Z,22.18
2022-09-03T14:06:43.355Z,21.92
2022-09-03T14:09:15.307Z,21.85
2022-09-03T14:12:14.474Z,21.73
2022-09-03T14:14:51.631Z,21.90
2022-09-03T14:17:45.763Z,22.06
2022-09-03T14:20:36.193Z,22.37
2022-09-03T14:23:19.853Z,22.42
2022-09-03T14:26:00.993Z,21.82
2022-09-03T14:28:32.059Z,21.62
2022-09-03T14:31:36.802Z,21.58
2022-09-03T14:34:23.723Z,21.71
2022-09-03T14:37:30.148Z,21.57
2022-09-03T14:40:10.750Z,21.37
2022-09-03T14:43:01.094Z,21.30
2022-09-03T14:45:30.117Z,21.33
2022-09-03T14:48:01.578Z,21.29
2022-09-03T14:50:41.278Z,20.97
2022-09-03T14:53:38.732Z,20.99
2022-09-03T14:56:12.743Z,20.87
2022-09-03T14:58:41.653Z,20.88
2022-09-03T15:01:29.713Z,20.71
2022-09-03T15:04:48.261Z,20.62
2022-09-03T15:07:35.133Z,20.52
2022-09-03T15:10:29.517Z,20.38
2022-09-03T15:13:17.856Z,20.23
2022-09-03T15:16:00.496Z,20.05
2022-09-03T15:18:38.343Z,20.05
2022-09-03T15:21:33.441Z,20.25
2022-09-03T15:24:17.500Z,20.32
2022-09-03T15:27:20.930Z,20.15
2022-09-03T15:30:10.216Z,20.07
2022-09-03T15:33:22.639Z,20.12
2022-09-03T15:36:27.618Z,20.08
2022-09-03T15:39:16.785Z,20.00
2022-09-03T15:41:51.293Z,19.94
2022-09-03T15:44:23.811Z,19.93
2022-09-03T15:46:54.560Z,19.85
2022-09-03T15:49:46.126Z,19.64
2022-09-03T15:52:40.649Z,19.38
2022-09-03T15:55:14.378Z,19.49
2022-09-03T15:57:52.415Z,19.34
2022-09-03T16:00:23.640Z,19.28
2022-09-03T16:03:11.319Z,19.24
2022-09-03T16:05:47.088Z,19.22
2022-09-03T16:08:34.272Z,19.21
2022-09-03T16:11:13.030Z,19.11
2022-09-03T16:13:49.782Z,19.11
2022-09-03T16:16:26.650Z,19.01
2022-09-03T16:19:06.128Z,18.94
2022-09-03T16:22:05.781Z,18.75
2022-09-03T16:24:52.352Z,18.80
2022-09-03T16:28:10.232Z,18.86
2022-09-03T16:30:39.907Z,18.87
2022-09-03T16:33:11.355Z,18.75
2022-09-03T16:36:16.472Z,18.79
2022-09-03T16:38:56.764Z,18.81
2022-09-03T16:41:35.537Z,18.85
2022-09-03T16:44:50.827Z,18.70
2022-09-03T16:47:51.009Z,18.83
2022-09-03T16:51:10.812Z,18.76
2022-09-03T16:54:13.821Z,18.71
2022-09-03T16:57:07.502Z,18.50
2022-09-03T17:00:00.565Z,18.35
2022-09-03T17:02:49.028Z,18.23
2022-09-03T17:05:41.187Z,18.30
2022-09-03T17:08:22.433Z,18.12
2022-09-03T17:11:36.377Z,18.23
2022-09-03T17:14:23.209Z,18.18
2022-09-03T17:17:10.272Z,18.17
2022-09-03T17:20:06.337Z,18.02
2022-09-03T17:22:59.699Z,18.04
2022-09-03T17:25:36.270Z,17.93
2022-09-03T17:28:25.317Z,18.04
2022-09-03T17:30:59.535Z,18.01
2022-09-03T17:33:46.378Z,18.00
2022-09-03T17:36:31.486Z,17.93
2022-09-03T17:39:51.351Z,17.86
2022-09-03T17:42:49.381Z,17.90
2022-09-03T17:45:27.986Z,17.83
2022-09-03T17:48:32.831Z,17.77
2022-09-03T17:51:17.828Z,17.75
2022-09-03T17:53:52.941Z,17.79
2022-09-03T17:56:30.308Z,17.80
2022-09-03T17:59:19.697Z,17.85
2022-09-03T18:02:23.926Z,17.75
2022-09-03T18:04:58.822Z,17.66
2022-09-03T18:07:29.881Z,17.69
2022-09-03T18:10:25.134Z,17.66
2022-09-03T18:13:12.777Z,17.62
2022-09-03T18:16:07.281Z,17.64
2022-09-03T18:18:43.766Z,17.66
2022-09-03T18:21:36.229Z,17.65
2022-09-03T18:24:54.456Z,17.66
2022-09-03T18:28:04.621Z,17.63
2022-09-03T18:30:52.816Z,17.63
2022-09-03T18:33:43.338Z,17.62
2022-09-03T18:36:32.368Z,17.58
2022-09-03T18:39:54.903Z,17.53
2022-09-03T18:43:09.974Z,17.51
2022-09-03T18:47:47.475Z,17.51
2022-09-03T18:49:37.985Z,17.50
2022-09-03T18:52:27.976Z,17.42
2022-09-03T18:55:26.924Z,17.45
2022-09-03T18:58:42.514Z,17.42
2022-09-03T19:01:55.231Z,17.38
2022-09-03T19:05:06.849Z,17.35
2022-09-03T19:08:14.786Z,17.26
2022-09-03T19:11:10.662Z,17.27
2022-09-03T19:14:00.053Z,17.22
2022-09-03T19:17:23.911Z,17.22
2022-09-03T19:20:13.506Z,17.16
2022-09-03T19:23:01.308Z,17.05
2022-09-03T19:25:49.829Z,16.99
2022-09-03T19:28:50.667Z,16.94
2022-09-03T19:31:58.654Z,16.99
2022-09-03T19:35:24.011Z,17.00
2022-09-03T19:38:48.112Z,16.95
2022-09-03T19:41:53.614Z,16.96
2022-09-03T19:45:10.251Z,16.94
2022-09-03T19:48:43.496Z,16.93
2022-09-03T19:51:39.568Z,16.89
2022-09-03T19:54:28.058Z,16.82
2022-09-03T19:57:16.589Z,16.77
2022-09-03T20:00:07.932Z,16.64
2022-09-03T20:03:00.461Z,16.54
2022-09-03T20:05:47.322Z,16.45
2022-09-03T20:08:36.042Z,16.40
2022-09-03T20:11:06.218Z,16.31
2022-09-03T20:13:59.580Z,16.27
2022-09-03T20:16:35.414Z,16.25
2022-09-03T20:19:21.665Z,16.25
2022-09-03T20:22:12.181Z,16.19
2022-09-03T20:24:44.384Z,16.17
2022-09-03T20:27:27.136Z,16.12
2022-09-03T20:30:03.632Z,16.08
2022-09-03T20:32:38.000Z,16.02
2022-09-03T20:35:33.376Z,15.98
2022-09-03T20:38:04.902Z,15.92
2022-09-03T20:41:10.590Z,15.88
2022-09-03T20:44:08.676Z,15.82
2022-09-03T20:46:53.654Z,15.78
2022-09-03T20:49:25.510Z,15.73
2022-09-03T20:52:08.653Z,15.69
2022-09-03T20:54:42.523Z,15.61
2022-09-03T20:57:35.986Z,15.55
2022-09-03T21:00:18.557Z,15.51
2022-09-03T21:03:20.159Z,15.47
2022-09-03T21:06:04.041Z,15.43
2022-09-03T21:08:36.217Z,15.36
2022-09-03T21:11:43.414Z,15.32
2022-09-03T21:14:35.803Z,15.29
2022-09-03T21:17:38.179Z,15.23
2022-09-03T21:20:46.042Z,15.20
2022-09-03T21:23:25.764Z,15.17
2022-09-03T21:26:14.833Z,15.11
2022-09-03T21:28:54.451Z,15.03
2022-09-03T21:31:35.161Z,14.95
2022-09-03T21:34:12.006Z,14.91
2022-09-03T21:36:43.598Z,14.87
2022-09-03T21:39:31.307Z,14.79
2022-09-03T21:42:22.590Z,14.74
2022-09-03T21:44:57.745Z,14.69
2022-09-03T21:47:28.529Z,14.61
2022-09-03T21:50:13.071Z,14.55
2022-09-03T21:53:00.162Z,14.51
2022-09-03T21:55:33.570Z,14.44
2022-09-03T21:58:01.699Z,14.40
2022-09-03T22:00:32.819Z,14.36
2022-09-03T22:03:01.351Z,14.31
2022-09-03T22:05:45.288Z,14.30
2022-09-03T22:08:35.021Z,14.26
2022-09-03T22:11:03.124Z,14.20
2022-09-03T22:13:49.373Z,14.19
2022-09-03T22:16:31.631Z,14.19
2022-09-03T22:18:59.975Z,14.18
2022-09-03T22:21:53.480Z,14.16
2022-09-03T22:24:25.379Z,14.11
2022-09-03T22:27:35.673Z,14.06
2022-09-03T22:30:04.035Z,13.99
2022-09-03T22:33:00.245Z,13.96
2022-09-03T22:35:43.084Z,13.92
2022-09-03T22:38:11.079Z,13.89
2022-09-03T22:40:52.441Z,13.86
2022-09-03T22:43:33.723Z,13.85
2022-09-03T22:46:09.177Z,13.84
2022-09-03T22:48:47.590Z,13.81
2022-09-03T22:51:21.488Z,13.77
2022-09-03T22:54:14.685Z,13.72
2022-09-03T22:56:43.925Z,13.67
2022-09-03T22:59:29.946Z,13.64
2022-09-03T23:02:26.602Z,13.61
2022-09-03T23:05:06.307Z,13.58
2022-09-03T23:07:57.497Z,13.55
2022-09-03T23:11:07.747Z,13.55
2022-09-03T23:13:45.800Z,13.53
2022-09-03T23:16:30.673Z,13.54
2022-09-03T23:19:03.584Z,13.54
2022-09-03T23:21:41.519Z,13.52
2022-09-03T23:24:24.354Z,13.48
2022-09-03T23:26:53.774Z,13.44
2022-09-03T23:29:33.737Z,13.41
2022-09-03T23:32:05.442Z,13.38
2022-09-03T23:34:33.884Z,13.36
2022-09-03T23:37:33.331Z,13.35
2022-09-03T23:40:33.187Z,13.31
2022-09-03T23:43:26.296Z,13.25
2022-09-03T23:46:06.415Z,13.20
2022-09-03T23:48:43.288Z,13.17
2022-09-03T23:51:26.321Z,13.12
2022-09-03T23:54:07.313Z,13.09
2022-09-03T23:56:57.466Z,13.03
2022-09-03T23:59:35.085Z,12.99
